Dynawave — 3FEH6 — position and weather

sailwx.info

Track history (hours):
 
Tides and Currents Weather Stations Pressure Air Temp Water Temp Dewpoint Dewpoint Depression Visibility Wind Speed Wind Dir Waves Ship Positions

Dynawave

Last reported at 2015-Mar-04 10:34 UTC. Time now 2015-Mar-04 11:19 UTC.
Position S 27°43' E 154°00'.

Length 209 m; draft 10.7 m.

Type: Cargo ship. MMSI: 356345000.

Date/timePositionNaut miles runAvg speedWind from/ knotsBaromVisibWave heightAir tempDewpointWater temp
2015-Mar-04 10:34S 27°43' E 154°00'9 9.4
2015-Mar-04 09:34S 27°52' E 153°59'10 9.6
2015-Mar-04 08:33S 28°02' E 153°58'10 9.6
2015-Mar-04 07:33S 28°11' E 153°57'11 9.5
2015-Mar-04 06:26S 28°22' E 153°56'9 9.2
2015-Mar-04 05:29S 28°31' E 153°55'251 9.3
2015-Mar-03 02:33S 32°35' E 152°50'1110.9
2015-Mar-03 01:33S 32°44' E 152°43'1110.7
2015-Mar-03 00:33S 32°54' E 152°37'1110.6
2015-Mar-02 23:33S 33°03' E 152°32'1010.1
2015-Mar-02 22:33S 33°12' E 152°26'1110.2
2015-Mar-02 21:31S 33°22' E 152°20'  
2015-Feb-26 03:33S 33°35' E 152°11'1313.0
2015-Feb-26 02:34S 33°24' E 152°18'1312.9
2015-Feb-26 01:34S 33°13' E 152°26'1412.5
2015-Feb-26 00:25S 32°60' E 152°33'1112.4
2015-Feb-25 23:33S 32°50' E 152°39'1212.1
2015-Feb-25 22:33S 32°40' E 152°46'1212.0
2015-Feb-25 21:34S 32°29' E 152°52'1211.8
2015-Feb-25 20:33S 32°18' E 152°57'26914.1
2015-Feb-25 01:24S 27°54' E 153°59'1113.1
2015-Feb-25 00:33S 27°43' E 154°00'3912.7
2015-Feb-24 21:30S 27°04' E 154°04'1712.3
2015-Feb-24 20:08S 26°47' E 154°06'812.1
2015-Feb-24 19:29S 26°40' E 154°06'  
Track history (hours):
 
Tides and Currents Weather Stations Pressure Air Temp Water Temp Dewpoint Dewpoint Depression Visibility Wind Speed Wind Dir Waves Ship Positions

Dynawave

Last reported at 2015-Mar-04 10:34 UTC. Time now 2015-Mar-04 11:19 UTC.
Position S 27°43' E 154°00'.

Length 209 m; draft 10.7 m.

Type: Cargo ship. MMSI: 356345000.

Date/timePositionNaut miles runAvg speedWind from/ knotsBaromVisibWave heightAir tempDewpointWater temp
2015-Mar-04 10:34S 27°43' E 154°00'9 9.4
2015-Mar-04 09:34S 27°52' E 153°59'10 9.6
2015-Mar-04 08:33S 28°02' E 153°58'10 9.6
2015-Mar-04 07:33S 28°11' E 153°57'11 9.5
2015-Mar-04 06:26S 28°22' E 153°56'9 9.2
2015-Mar-04 05:29S 28°31' E 153°55'251 9.3
2015-Mar-03 02:33S 32°35' E 152°50'1110.9
2015-Mar-03 01:33S 32°44' E 152°43'1110.7
2015-Mar-03 00:33S 32°54' E 152°37'1110.6
2015-Mar-02 23:33S 33°03' E 152°32'1010.1
2015-Mar-02 22:33S 33°12' E 152°26'1110.2
2015-Mar-02 21:31S 33°22' E 152°20'  
2015-Feb-26 03:33S 33°35' E 152°11'1313.0
2015-Feb-26 02:34S 33°24' E 152°18'1312.9
2015-Feb-26 01:34S 33°13' E 152°26'1412.5
2015-Feb-26 00:25S 32°60' E 152°33'1112.4
2015-Feb-25 23:33S 32°50' E 152°39'1212.1
2015-Feb-25 22:33S 32°40' E 152°46'1212.0
2015-Feb-25 21:34S 32°29' E 152°52'1211.8
2015-Feb-25 20:33S 32°18' E 152°57'26914.1
2015-Feb-25 01:24S 27°54' E 153°59'1113.1
2015-Feb-25 00:33S 27°43' E 154°00'3912.7
2015-Feb-24 21:30S 27°04' E 154°04'1712.3
2015-Feb-24 20:08S 26°47' E 154°06'812.1
2015-Feb-24 19:29S 26°40' E 154°06'  

Dump ship's entire track history